sensor_id;sensor_type;location;lat;lon;timestamp;P1;durP1;ratioP1;P2;durP2;ratioP2
68938;SDS011;59064;45.294;11.816;2023-07-20T00:01:46;11.00;;;6.30;;
68938;SDS011;59064;45.294;11.816;2023-07-20T00:04:12;15.10;;;7.10;;
68938;SDS011;59064;45.294;11.816;2023-07-20T00:06:38;10.10;;;6.20;;
68938;SDS011;59064;45.294;11.816;2023-07-20T00:09:05;12.30;;;5.90;;
68938;SDS011;59064;45.294;11.816;2023-07-20T00:11:31;11.60;;;7.20;;
68938;SDS011;59064;45.294;11.816;2023-07-20T00:13:56;12.20;;;6.90;;
68938;SDS011;59064;45.294;11.816;2023-07-20T00:16:22;11.40;;;6.60;;
68938;SDS011;59064;45.294;11.816;2023-07-20T00:18:47;13.10;;;6.90;;
68938;SDS011;59064;45.294;11.816;2023-07-20T00:21:13;13.50;;;6.90;;
68938;SDS011;59064;45.294;11.816;2023-07-20T00:23:38;11.10;;;5.80;;
68938;SDS011;59064;45.294;11.816;2023-07-20T00:26:04;11.90;;;6.90;;
68938;SDS011;59064;45.294;11.816;2023-07-20T00:28:29;10.70;;;6.00;;
68938;SDS011;59064;45.294;11.816;2023-07-20T00:30:55;12.70;;;6.90;;
68938;SDS011;59064;45.294;11.816;2023-07-20T00:33:20;11.80;;;7.10;;
68938;SDS011;59064;45.294;11.816;2023-07-20T00:35:46;12.60;;;7.10;;
68938;SDS011;59064;45.294;11.816;2023-07-20T00:38:11;10.30;;;6.20;;
68938;SDS011;59064;45.294;11.816;2023-07-20T00:40:40;12.30;;;6.20;;
68938;SDS011;59064;45.294;11.816;2023-07-20T00:43:07;13.20;;;7.40;;
68938;SDS011;59064;45.294;11.816;2023-07-20T00:45:34;13.10;;;7.10;;
68938;SDS011;59064;45.294;11.816;2023-07-20T00:48:00;11.70;;;7.40;;
68938;SDS011;59064;45.294;11.816;2023-07-20T00:50:26;14.20;;;7.70;;
68938;SDS011;59064;45.294;11.816;2023-07-20T00:52:54;11.80;;;7.60;;
68938;SDS011;59064;45.294;11.816;2023-07-20T00:55:20;12.60;;;7.70;;
68938;SDS011;59064;45.294;11.816;2023-07-20T00:57:47;18.70;;;7.80;;
68938;SDS011;59064;45.294;11.816;2023-07-20T01:00:12;15.60;;;9.00;;
68938;SDS011;59064;45.294;11.816;2023-07-20T01:02:38;12.20;;;7.80;;
68938;SDS011;59064;45.294;11.816;2023-07-20T01:05:04;10.40;;;7.10;;
68938;SDS011;59064;45.294;11.816;2023-07-20T01:07:35;14.00;;;8.00;;
68938;SDS011;59064;45.294;11.816;2023-07-20T01:10:07;12.70;;;7.60;;
68938;SDS011;59064;45.294;11.816;2023-07-20T01:12:45;11.90;;;7.50;;
68938;SDS011;59064;45.294;11.816;2023-07-20T01:15:12;14.60;;;6.90;;
68938;SDS011;59064;45.294;11.816;2023-07-20T01:17:38;14.40;;;7.00;;
68938;SDS011;59064;45.294;11.816;2023-07-20T01:20:04;11.60;;;6.30;;
68938;SDS011;59064;45.294;11.816;2023-07-20T01:25:59;12.50;;;6.30;;
68938;SDS011;59064;45.294;11.816;2023-07-20T01:33:46;10.90;;;6.80;;
68938;SDS011;59064;45.294;11.816;2023-07-20T01:36:12;11.80;;;7.30;;
68938;SDS011;59064;45.294;11.816;2023-07-20T01:38:41;13.30;;;7.30;;
68938;SDS011;59064;45.294;11.816;2023-07-20T01:41:10;12.00;;;6.80;;
68938;SDS011;59064;45.294;11.816;2023-07-20T01:43:36;10.70;;;6.80;;
68938;SDS011;59064;45.294;11.816;2023-07-20T01:46:02;12.90;;;6.10;;
68938;SDS011;59064;45.294;11.816;2023-07-20T01:48:27;11.00;;;6.00;;
68938;SDS011;59064;45.294;11.816;2023-07-20T01:50:53;10.10;;;6.00;;
68938;SDS011;59064;45.294;11.816;2023-07-20T01:53:19;11.00;;;5.10;;
68938;SDS011;59064;45.294;11.816;2023-07-20T01:55:45;12.40;;;5.70;;
68938;SDS011;59064;45.294;11.816;2023-07-20T01:58:11;11.40;;;5.50;;
68938;SDS011;59064;45.294;11.816;2023-07-20T02:00:37;15.20;;;6.80;;
68938;SDS011;59064;45.294;11.816;2023-07-20T02:03:03;11.40;;;6.00;;
68938;SDS011;59064;45.294;11.816;2023-07-20T02:05:28;13.50;;;5.90;;
68938;SDS011;59064;45.294;11.816;2023-07-20T02:07:54;9.30;;;5.60;;
68938;SDS011;59064;45.294;11.816;2023-07-20T02:10:20;10.70;;;5.90;;
68938;SDS011;59064;45.294;11.816;2023-07-20T02:12:45;13.20;;;7.20;;
68938;SDS011;59064;45.294;11.816;2023-07-20T02:15:10;11.40;;;6.50;;
68938;SDS011;59064;45.294;11.816;2023-07-20T02:17:38;11.80;;;6.00;;
68938;SDS011;59064;45.294;11.816;2023-07-20T02:20:06;11.50;;;5.10;;
68938;SDS011;59064;45.294;11.816;2023-07-20T02:22:34;12.60;;;6.10;;
68938;SDS011;59064;45.294;11.816;2023-07-20T02:25:00;12.10;;;6.30;;
68938;SDS011;59064;45.294;11.816;2023-07-20T02:27:25;12.60;;;6.80;;
68938;SDS011;59064;45.294;11.816;2023-07-20T02:29:51;12.20;;;6.40;;
68938;SDS011;59064;45.294;11.816;2023-07-20T02:32:16;13.20;;;7.70;;
68938;SDS011;59064;45.294;11.816;2023-07-20T02:34:41;10.80;;;6.50;;
68938;SDS011;59064;45.294;11.816;2023-07-20T02:37:07;10.10;;;6.00;;
68938;SDS011;59064;45.294;11.816;2023-07-20T02:39:32;12.40;;;7.50;;
68938;SDS011;59064;45.294;11.816;2023-07-20T02:41:58;12.40;;;7.70;;
68938;SDS011;59064;45.294;11.816;2023-07-20T02:44:23;13.00;;;8.10;;
68938;SDS011;59064;45.294;11.816;2023-07-20T02:46:49;12.40;;;7.50;;
68938;SDS011;59064;45.294;11.816;2023-07-20T02:49:14;14.60;;;7.50;;
68938;SDS011;59064;45.294;11.816;2023-07-20T02:51:41;11.50;;;6.90;;
68938;SDS011;59064;45.294;11.816;2023-07-20T02:54:07;11.70;;;6.50;;
68938;SDS011;59064;45.294;11.816;2023-07-20T02:56:33;12.20;;;7.00;;
68938;SDS011;59064;45.294;11.816;2023-07-20T02:58:58;12.10;;;7.30;;
68938;SDS011;59064;45.294;11.816;2023-07-20T03:01:24;12.50;;;7.50;;
68938;SDS011;59064;45.294;11.816;2023-07-20T03:03:49;13.00;;;7.70;;
68938;SDS011;59064;45.294;11.816;2023-07-20T03:06:15;13.90;;;7.70;;
68938;SDS011;59064;45.294;11.816;2023-07-20T03:08:42;11.50;;;6.50;;
68938;SDS011;59064;45.294;11.816;2023-07-20T03:11:17;13.20;;;7.30;;
68938;SDS011;59064;45.294;11.816;2023-07-20T03:13:43;13.20;;;6.70;;
68938;SDS011;59064;45.294;11.816;2023-07-20T03:16:13;10.90;;;7.30;;
68938;SDS011;59064;45.294;11.816;2023-07-20T03:18:42;10.80;;;7.30;;
68938;SDS011;59064;45.294;11.816;2023-07-20T03:21:08;13.90;;;7.60;;
68938;SDS011;59064;45.294;11.816;2023-07-20T03:23:36;11.50;;;7.00;;
68938;SDS011;59064;45.294;11.816;2023-07-20T03:26:02;12.90;;;7.70;;
68938;SDS011;59064;45.294;11.816;2023-07-20T03:28:27;15.10;;;8.30;;
68938;SDS011;59064;45.294;11.816;2023-07-20T03:30:53;10.90;;;7.10;;
68938;SDS011;59064;45.294;11.816;2023-07-20T03:33:21;10.60;;;6.50;;
68938;SDS011;59064;45.294;11.816;2023-07-20T03:35:53;11.00;;;7.20;;
68938;SDS011;59064;45.294;11.816;2023-07-20T03:38:19;12.00;;;7.30;;
68938;SDS011;59064;45.294;11.816;2023-07-20T03:40:49;12.00;;;7.40;;
68938;SDS011;59064;45.294;11.816;2023-07-20T03:43:18;10.10;;;6.20;;
68938;SDS011;59064;45.294;11.816;2023-07-20T03:45:44;11.10;;;7.00;;
68938;SDS011;59064;45.294;11.816;2023-07-20T03:48:11;11.50;;;6.40;;
68938;SDS011;59064;45.294;11.816;2023-07-20T03:50:36;13.10;;;7.30;;
68938;SDS011;59064;45.294;11.816;2023-07-20T03:53:02;14.60;;;7.50;;
68938;SDS011;59064;45.294;11.816;2023-07-20T03:55:27;11.80;;;7.20;;
68938;SDS011;59064;45.294;11.816;2023-07-20T03:57:53;12.70;;;7.60;;
68938;SDS011;59064;45.294;11.816;2023-07-20T04:00:18;13.70;;;7.20;;
68938;SDS011;59064;45.294;11.816;2023-07-20T04:02:44;12.60;;;7.60;;
68938;SDS011;59064;45.294;11.816;2023-07-20T04:05:09;12.00;;;6.90;;
68938;SDS011;59064;45.294;11.816;2023-07-20T04:07:35;14.10;;;7.50;;
68938;SDS011;59064;45.294;11.816;2023-07-20T04:10:00;13.60;;;7.90;;
68938;SDS011;59064;45.294;11.816;2023-07-20T04:12:26;12.30;;;8.10;;
68938;SDS011;59064;45.294;11.816;2023-07-20T04:14:52;12.20;;;7.90;;
68938;SDS011;59064;45.294;11.816;2023-07-20T04:17:17;12.40;;;7.10;;
68938;SDS011;59064;45.294;11.816;2023-07-20T04:19:43;9.40;;;6.50;;
68938;SDS011;59064;45.294;11.816;2023-07-20T04:22:09;11.70;;;7.60;;
68938;SDS011;59064;45.294;11.816;2023-07-20T04:24:34;11.50;;;6.80;;
68938;SDS011;59064;45.294;11.816;2023-07-20T04:27:00;12.80;;;7.50;;
68938;SDS011;59064;45.294;11.816;2023-07-20T04:29:25;11.60;;;6.80;;
68938;SDS011;59064;45.294;11.816;2023-07-20T04:31:50;14.30;;;6.70;;
68938;SDS011;59064;45.294;11.816;2023-07-20T04:34:16;8.90;;;5.60;;
68938;SDS011;59064;45.294;11.816;2023-07-20T04:36:42;11.20;;;6.60;;
68938;SDS011;59064;45.294;11.816;2023-07-20T04:39:09;11.60;;;6.70;;
68938;SDS011;59064;45.294;11.816;2023-07-20T04:41:35;12.90;;;6.60;;
68938;SDS011;59064;45.294;11.816;2023-07-20T04:44:00;8.20;;;5.40;;
68938;SDS011;59064;45.294;11.816;2023-07-20T04:46:26;9.60;;;5.60;;
68938;SDS011;59064;45.294;11.816;2023-07-20T04:48:51;12.30;;;5.90;;
68938;SDS011;59064;45.294;11.816;2023-07-20T04:51:17;10.40;;;5.80;;
68938;SDS011;59064;45.294;11.816;2023-07-20T04:53:45;9.00;;;5.40;;
68938;SDS011;59064;45.294;11.816;2023-07-20T04:56:14;10.40;;;5.60;;
68938;SDS011;59064;45.294;11.816;2023-07-20T04:58:39;10.20;;;6.10;;
68938;SDS011;59064;45.294;11.816;2023-07-20T05:01:05;9.10;;;5.00;;
68938;SDS011;59064;45.294;11.816;2023-07-20T05:03:30;9.80;;;6.20;;
68938;SDS011;59064;45.294;11.816;2023-07-20T05:05:56;8.80;;;5.80;;
68938;SDS011;59064;45.294;11.816;2023-07-20T05:08:22;11.40;;;6.10;;
68938;SDS011;59064;45.294;11.816;2023-07-20T05:10:47;9.70;;;5.60;;
68938;SDS011;59064;45.294;11.816;2023-07-20T05:13:13;10.10;;;5.90;;
68938;SDS011;59064;45.294;11.816;2023-07-20T05:15:39;8.70;;;5.60;;
68938;SDS011;59064;45.294;11.816;2023-07-20T05:18:04;12.00;;;5.80;;
68938;SDS011;59064;45.294;11.816;2023-07-20T05:20:30;9.80;;;5.80;;
68938;SDS011;59064;45.294;11.816;2023-07-20T05:22:56;10.10;;;5.60;;
68938;SDS011;59064;45.294;11.816;2023-07-20T05:25:22;11.70;;;6.00;;
68938;SDS011;59064;45.294;11.816;2023-07-20T05:27:48;12.70;;;6.30;;
68938;SDS011;59064;45.294;11.816;2023-07-20T05:30:13;8.40;;;5.30;;
68938;SDS011;59064;45.294;11.816;2023-07-20T05:32:39;13.20;;;6.30;;
68938;SDS011;59064;45.294;11.816;2023-07-20T05:35:05;9.90;;;6.40;;
68938;SDS011;59064;45.294;11.816;2023-07-20T05:37:30;12.40;;;6.10;;
68938;SDS011;59064;45.294;11.816;2023-07-20T05:39:56;8.00;;;5.50;;
68938;SDS011;59064;45.294;11.816;2023-07-20T05:42:22;10.00;;;6.60;;
68938;SDS011;59064;45.294;11.816;2023-07-20T05:44:48;8.90;;;5.50;;
68938;SDS011;59064;45.294;11.816;2023-07-20T05:47:15;8.40;;;5.70;;
68938;SDS011;59064;45.294;11.816;2023-07-20T05:49:40;11.50;;;6.20;;
68938;SDS011;59064;45.294;11.816;2023-07-20T05:52:06;9.80;;;6.10;;
68938;SDS011;59064;45.294;11.816;2023-07-20T05:54:31;8.70;;;5.30;;
68938;SDS011;59064;45.294;11.816;2023-07-20T05:56:57;11.90;;;5.80;;
68938;SDS011;59064;45.294;11.816;2023-07-20T05:59:22;11.00;;;6.50;;
68938;SDS011;59064;45.294;11.816;2023-07-20T06:01:48;10.20;;;5.40;;
68938;SDS011;59064;45.294;11.816;2023-07-20T06:04:14;11.80;;;6.70;;
68938;SDS011;59064;45.294;11.816;2023-07-20T06:06:40;9.70;;;5.80;;
68938;SDS011;59064;45.294;11.816;2023-07-20T06:09:06;10.90;;;6.20;;
68938;SDS011;59064;45.294;11.816;2023-07-20T06:11:35;10.60;;;6.00;;
68938;SDS011;59064;45.294;11.816;2023-07-20T06:14:00;8.50;;;4.50;;
68938;SDS011;59064;45.294;11.816;2023-07-20T06:16:26;11.00;;;5.40;;
68938;SDS011;59064;45.294;11.816;2023-07-20T06:18:51;10.10;;;6.10;;
68938;SDS011;59064;45.294;11.816;2023-07-20T06:21:16;11.50;;;5.60;;
68938;SDS011;59064;45.294;11.816;2023-07-20T06:23:42;8.60;;;5.20;;
68938;SDS011;59064;45.294;11.816;2023-07-20T06:26:08;7.90;;;5.30;;
68938;SDS011;59064;45.294;11.816;2023-07-20T06:28:33;10.00;;;5.60;;
68938;SDS011;59064;45.294;11.816;2023-07-20T06:31:02;6.40;;;4.60;;
68938;SDS011;59064;45.294;11.816;2023-07-20T06:33:28;10.00;;;5.50;;
68938;SDS011;59064;45.294;11.816;2023-07-20T06:35:54;7.70;;;4.20;;
68938;SDS011;59064;45.294;11.816;2023-07-20T06:38:22;10.60;;;5.30;;
68938;SDS011;59064;45.294;11.816;2023-07-20T06:40:48;7.80;;;4.60;;
68938;SDS011;59064;45.294;11.816;2023-07-20T06:43:15;8.90;;;5.40;;
68938;SDS011;59064;45.294;11.816;2023-07-20T06:45:41;8.30;;;5.00;;
68938;SDS011;59064;45.294;11.816;2023-07-20T06:48:07;9.40;;;4.90;;
68938;SDS011;59064;45.294;11.816;2023-07-20T06:50:32;9.00;;;5.00;;
68938;SDS011;59064;45.294;11.816;2023-07-20T06:52:58;8.70;;;5.10;;
68938;SDS011;59064;45.294;11.816;2023-07-20T06:55:25;8.10;;;5.20;;
68938;SDS011;59064;45.294;11.816;2023-07-20T06:57:51;11.00;;;6.60;;
68938;SDS011;59064;45.294;11.816;2023-07-20T07:00:16;8.20;;;5.20;;
68938;SDS011;59064;45.294;11.816;2023-07-20T07:02:42;7.80;;;5.00;;
68938;SDS011;59064;45.294;11.816;2023-07-20T07:05:08;7.70;;;5.60;;
68938;SDS011;59064;45.294;11.816;2023-07-20T07:07:33;9.10;;;5.30;;
68938;SDS011;59064;45.294;11.816;2023-07-20T07:09:59;7.40;;;4.70;;
68938;SDS011;59064;45.294;11.816;2023-07-20T07:12:25;8.40;;;4.70;;
68938;SDS011;59064;45.294;11.816;2023-07-20T07:14:50;8.10;;;4.40;;
68938;SDS011;59064;45.294;11.816;2023-07-20T07:17:16;8.80;;;4.20;;
68938;SDS011;59064;45.294;11.816;2023-07-20T07:19:41;8.70;;;5.10;;
68938;SDS011;59064;45.294;11.816;2023-07-20T07:22:07;7.70;;;4.00;;
68938;SDS011;59064;45.294;11.816;2023-07-20T07:24:32;7.00;;;4.80;;
68938;SDS011;59064;45.294;11.816;2023-07-20T07:27:01;9.00;;;5.60;;
68938;SDS011;59064;45.294;11.816;2023-07-20T07:29:27;6.90;;;4.10;;
68938;SDS011;59064;45.294;11.816;2023-07-20T07:31:52;7.00;;;4.30;;
68938;SDS011;59064;45.294;11.816;2023-07-20T07:34:18;8.80;;;4.10;;
68938;SDS011;59064;45.294;11.816;2023-07-20T07:36:43;9.70;;;4.40;;
68938;SDS011;59064;45.294;11.816;2023-07-20T07:39:09;7.50;;;4.20;;
68938;SDS011;59064;45.294;11.816;2023-07-20T07:41:35;9.20;;;3.80;;
68938;SDS011;59064;45.294;11.816;2023-07-20T07:44:01;7.60;;;4.10;;
68938;SDS011;59064;45.294;11.816;2023-07-20T07:46:26;6.60;;;3.80;;
68938;SDS011;59064;45.294;11.816;2023-07-20T07:48:52;7.10;;;3.80;;
68938;SDS011;59064;45.294;11.816;2023-07-20T07:51:18;5.90;;;3.70;;
68938;SDS011;59064;45.294;11.816;2023-07-20T07:53:48;6.20;;;3.80;;
68938;SDS011;59064;45.294;11.816;2023-07-20T07:56:14;6.80;;;3.90;;
68938;SDS011;59064;45.294;11.816;2023-07-20T07:58:40;10.10;;;5.00;;
68938;SDS011;59064;45.294;11.816;2023-07-20T08:01:05;8.00;;;4.50;;
68938;SDS011;59064;45.294;11.816;2023-07-20T08:03:31;8.40;;;4.60;;
68938;SDS011;59064;45.294;11.816;2023-07-20T08:05:56;7.60;;;4.00;;
68938;SDS011;59064;45.294;11.816;2023-07-20T08:08:22;8.50;;;4.30;;
68938;SDS011;59064;45.294;11.816;2023-07-20T08:10:48;7.00;;;4.10;;
68938;SDS011;59064;45.294;11.816;2023-07-20T08:13:13;8.40;;;4.60;;
68938;SDS011;59064;45.294;11.816;2023-07-20T08:15:39;7.40;;;4.50;;
68938;SDS011;59064;45.294;11.816;2023-07-20T08:18:05;6.80;;;4.30;;
68938;SDS011;59064;45.294;11.816;2023-07-20T08:20:32;9.30;;;4.30;;
68938;SDS011;59064;45.294;11.816;2023-07-20T08:23:00;10.00;;;4.20;;
68938;SDS011;59064;45.294;11.816;2023-07-20T08:25:26;6.20;;;3.70;;
68938;SDS011;59064;45.294;11.816;2023-07-20T08:27:51;7.50;;;4.00;;
68938;SDS011;59064;45.294;11.816;2023-07-20T08:30:17;6.60;;;3.90;;
68938;SDS011;59064;45.294;11.816;2023-07-20T08:32:46;8.00;;;5.00;;
68938;SDS011;59064;45.294;11.816;2023-07-20T08:35:12;8.40;;;4.90;;
68938;SDS011;59064;45.294;11.816;2023-07-20T08:37:37;8.40;;;4.50;;
68938;SDS011;59064;45.294;11.816;2023-07-20T08:40:03;10.40;;;4.90;;
68938;SDS011;59064;45.294;11.816;2023-07-20T08:42:29;11.70;;;4.10;;
68938;SDS011;59064;45.294;11.816;2023-07-20T08:44:55;8.00;;;4.40;;
68938;SDS011;59064;45.294;11.816;2023-07-20T08:47:22;8.90;;;4.40;;
68938;SDS011;59064;45.294;11.816;2023-07-20T08:49:50;8.30;;;4.40;;
68938;SDS011;59064;45.294;11.816;2023-07-20T08:52:17;9.90;;;4.20;;
68938;SDS011;59064;45.294;11.816;2023-07-20T08:54:42;9.30;;;4.60;;
68938;SDS011;59064;45.294;11.816;2023-07-20T08:57:08;11.50;;;4.60;;
68938;SDS011;59064;45.294;11.816;2023-07-20T08:59:37;9.90;;;5.50;;
68938;SDS011;59064;45.294;11.816;2023-07-20T09:02:04;9.20;;;4.80;;
68938;SDS011;59064;45.294;11.816;2023-07-20T09:04:30;6.70;;;4.20;;
68938;SDS011;59064;45.294;11.816;2023-07-20T09:06:57;8.20;;;4.50;;
68938;SDS011;59064;45.294;11.816;2023-07-20T09:09:23;7.70;;;4.00;;
68938;SDS011;59064;45.294;11.816;2023-07-20T09:11:48;8.60;;;4.80;;
68938;SDS011;59064;45.294;11.816;2023-07-20T09:14:14;7.40;;;4.00;;
68938;SDS011;59064;45.294;11.816;2023-07-20T09:16:47;6.10;;;3.50;;
68938;SDS011;59064;45.294;11.816;2023-07-20T09:19:14;5.20;;;3.10;;
68938;SDS011;59064;45.294;11.816;2023-07-20T09:21:46;8.00;;;3.10;;
68938;SDS011;59064;45.294;11.816;2023-07-20T09:24:13;8.40;;;3.10;;
68938;SDS011;59064;45.294;11.816;2023-07-20T09:26:42;5.40;;;3.30;;
68938;SDS011;59064;45.294;11.816;2023-07-20T09:29:10;7.40;;;3.40;;
68938;SDS011;59064;45.294;11.816;2023-07-20T09:31:36;5.20;;;2.90;;
68938;SDS011;59064;45.294;11.816;2023-07-20T09:34:01;6.80;;;3.40;;
68938;SDS011;59064;45.294;11.816;2023-07-20T09:36:28;5.70;;;3.00;;
68938;SDS011;59064;45.294;11.816;2023-07-20T09:38:54;7.20;;;3.20;;
68938;SDS011;59064;45.294;11.816;2023-07-20T09:41:20;7.70;;;3.10;;
68938;SDS011;59064;45.294;11.816;2023-07-20T09:43:46;6.00;;;3.40;;
68938;SDS011;59064;45.294;11.816;2023-07-20T09:46:12;7.60;;;3.60;;
68938;SDS011;59064;45.294;11.816;2023-07-20T09:48:38;11.40;;;3.50;;
68938;SDS011;59064;45.294;11.816;2023-07-20T09:51:04;8.60;;;3.80;;
68938;SDS011;59064;45.294;11.816;2023-07-20T09:53:32;6.40;;;3.70;;
68938;SDS011;59064;45.294;11.816;2023-07-20T09:55:59;7.60;;;3.60;;
68938;SDS011;59064;45.294;11.816;2023-07-20T09:58:26;8.20;;;3.90;;
68938;SDS011;59064;45.294;11.816;2023-07-20T10:00:53;6.50;;;3.40;;
68938;SDS011;59064;45.294;11.816;2023-07-20T10:03:22;4.70;;;3.00;;
68938;SDS011;59064;45.294;11.816;2023-07-20T10:05:58;7.20;;;3.40;;
68938;SDS011;59064;45.294;11.816;2023-07-20T10:08:28;7.30;;;2.90;;
68938;SDS011;59064;45.294;11.816;2023-07-20T10:10:57;6.00;;;3.00;;
68938;SDS011;59064;45.294;11.816;2023-07-20T10:13:26;5.40;;;2.80;;
68938;SDS011;59064;45.294;11.816;2023-07-20T10:16:01;6.10;;;2.90;;
68938;SDS011;59064;45.294;11.816;2023-07-20T10:18:29;6.10;;;2.90;;
68938;SDS011;59064;45.294;11.816;2023-07-20T10:21:00;6.00;;;3.20;;
68938;SDS011;59064;45.294;11.816;2023-07-20T10:23:28;6.80;;;2.90;;
68938;SDS011;59064;45.294;11.816;2023-07-20T10:25:55;4.50;;;2.70;;
68938;SDS011;59064;45.294;11.816;2023-07-20T10:28:22;5.10;;;2.80;;
68938;SDS011;59064;45.294;11.816;2023-07-20T10:30:50;4.10;;;2.50;;
68938;SDS011;59064;45.294;11.816;2023-07-20T10:33:16;5.30;;;2.90;;
68938;SDS011;59064;45.294;11.816;2023-07-20T10:35:55;6.40;;;2.80;;
68938;SDS011;59064;45.294;11.816;2023-07-20T10:41:35;6.00;;;3.00;;
68938;SDS011;59064;45.294;11.816;2023-07-20T10:44:06;6.50;;;2.80;;
68938;SDS011;59064;45.294;11.816;2023-07-20T10:46:42;6.00;;;3.10;;
68938;SDS011;59064;45.294;11.816;2023-07-20T10:49:09;5.30;;;3.00;;
68938;SDS011;59064;45.294;11.816;2023-07-20T10:51:39;6.80;;;3.20;;
68938;SDS011;59064;45.294;11.816;2023-07-20T10:56:42;5.90;;;3.30;;
68938;SDS011;59064;45.294;11.816;2023-07-20T11:01:48;7.10;;;3.40;;
68938;SDS011;59064;45.294;11.816;2023-07-20T11:04:15;6.20;;;3.50;;
68938;SDS011;59064;45.294;11.816;2023-07-20T11:06:44;5.60;;;3.00;;
68938;SDS011;59064;45.294;11.816;2023-07-20T11:09:14;5.90;;;2.80;;
68938;SDS011;59064;45.294;11.816;2023-07-20T11:11:41;6.30;;;3.10;;
68938;SDS011;59064;45.294;11.816;2023-07-20T11:14:20;5.90;;;3.10;;
68938;SDS011;59064;45.294;11.816;2023-07-20T11:16:48;7.10;;;3.00;;
68938;SDS011;59064;45.294;11.816;2023-07-20T11:19:25;4.80;;;2.60;;
68938;SDS011;59064;45.294;11.816;2023-07-20T11:21:55;5.60;;;2.70;;
68938;SDS011;59064;45.294;11.816;2023-07-20T11:24:23;6.70;;;3.10;;
68938;SDS011;59064;45.294;11.816;2023-07-20T11:26:49;5.80;;;3.40;;
68938;SDS011;59064;45.294;11.816;2023-07-20T11:29:20;6.10;;;3.30;;
68938;SDS011;59064;45.294;11.816;2023-07-20T11:31:47;6.90;;;3.20;;
68938;SDS011;59064;45.294;11.816;2023-07-20T11:34:15;6.70;;;3.10;;
68938;SDS011;59064;45.294;11.816;2023-07-20T11:36:42;5.20;;;2.50;;
68938;SDS011;59064;45.294;11.816;2023-07-20T11:39:18;5.80;;;2.50;;
68938;SDS011;59064;45.294;11.816;2023-07-20T11:41:46;4.50;;;2.70;;
68938;SDS011;59064;45.294;11.816;2023-07-20T11:44:15;6.10;;;2.60;;
68938;SDS011;59064;45.294;11.816;2023-07-20T11:46:42;5.70;;;2.60;;
68938;SDS011;59064;45.294;11.816;2023-07-20T11:49:09;5.80;;;2.80;;
68938;SDS011;59064;45.294;11.816;2023-07-20T11:51:35;4.80;;;2.40;;
68938;SDS011;59064;45.294;11.816;2023-07-20T11:54:03;5.30;;;3.10;;
68938;SDS011;59064;45.294;11.816;2023-07-20T11:56:30;4.60;;;2.70;;
68938;SDS011;59064;45.294;11.816;2023-07-20T11:58:56;4.60;;;2.90;;
68938;SDS011;59064;45.294;11.816;2023-07-20T12:01:24;6.80;;;2.70;;
68938;SDS011;59064;45.294;11.816;2023-07-20T12:03:57;6.30;;;2.90;;
68938;SDS011;59064;45.294;11.816;2023-07-20T12:06:25;5.50;;;2.70;;
68938;SDS011;59064;45.294;11.816;2023-07-20T12:08:54;5.10;;;2.50;;
68938;SDS011;59064;45.294;11.816;2023-07-20T12:11:30;6.00;;;3.00;;
68938;SDS011;59064;45.294;11.816;2023-07-20T12:13:59;4.80;;;2.90;;
68938;SDS011;59064;45.294;11.816;2023-07-20T12:16:28;6.20;;;2.80;;
68938;SDS011;59064;45.294;11.816;2023-07-20T12:21:27;7.00;;;2.70;;
68938;SDS011;59064;45.294;11.816;2023-07-20T12:23:55;5.40;;;2.60;;
68938;SDS011;59064;45.294;11.816;2023-07-20T12:26:23;6.80;;;2.80;;
68938;SDS011;59064;45.294;11.816;2023-07-20T12:28:49;6.10;;;2.60;;
68938;SDS011;59064;45.294;11.816;2023-07-20T12:31:14;5.00;;;2.70;;
68938;SDS011;59064;45.294;11.816;2023-07-20T12:33:40;6.80;;;2.70;;
68938;SDS011;59064;45.294;11.816;2023-07-20T12:36:06;6.80;;;3.10;;
68938;SDS011;59064;45.294;11.816;2023-07-20T12:38:34;6.30;;;2.70;;
68938;SDS011;59064;45.294;11.816;2023-07-20T12:41:02;6.30;;;2.70;;
68938;SDS011;59064;45.294;11.816;2023-07-20T12:43:28;5.20;;;2.80;;
68938;SDS011;59064;45.294;11.816;2023-07-20T12:45:55;6.00;;;2.80;;
68938;SDS011;59064;45.294;11.816;2023-07-20T12:48:21;6.50;;;2.70;;
68938;SDS011;59064;45.294;11.816;2023-07-20T12:50:47;6.30;;;2.70;;
68938;SDS011;59064;45.294;11.816;2023-07-20T12:53:12;4.70;;;2.60;;
68938;SDS011;59064;45.294;11.816;2023-07-20T12:55:38;6.40;;;2.70;;
68938;SDS011;59064;45.294;11.816;2023-07-20T12:58:07;5.60;;;2.50;;
68938;SDS011;59064;45.294;11.816;2023-07-20T13:00:33;5.00;;;2.70;;
68938;SDS011;59064;45.294;11.816;2023-07-20T13:02:58;6.30;;;2.70;;
68938;SDS011;59064;45.294;11.816;2023-07-20T13:05:24;6.30;;;2.80;;
68938;SDS011;59064;45.294;11.816;2023-07-20T13:07:49;4.80;;;2.20;;
68938;SDS011;59064;45.294;11.816;2023-07-20T13:10:15;6.30;;;2.60;;
68938;SDS011;59064;45.294;11.816;2023-07-20T13:12:40;6.30;;;2.60;;
68938;SDS011;59064;45.294;11.816;2023-07-20T13:15:07;4.90;;;2.40;;
68938;SDS011;59064;45.294;11.816;2023-07-20T13:17:34;7.00;;;2.50;;
68938;SDS011;59064;45.294;11.816;2023-07-20T13:20:01;5.40;;;2.30;;
68938;SDS011;59064;45.294;11.816;2023-07-20T13:22:29;5.50;;;2.40;;
68938;SDS011;59064;45.294;11.816;2023-07-20T13:24:55;6.20;;;2.60;;
68938;SDS011;59064;45.294;11.816;2023-07-20T13:27:20;4.40;;;2.40;;
68938;SDS011;59064;45.294;11.816;2023-07-20T13:29:46;4.50;;;2.40;;
68938;SDS011;59064;45.294;11.816;2023-07-20T13:32:15;4.10;;;2.50;;
68938;SDS011;59064;45.294;11.816;2023-07-20T13:34:41;4.50;;;2.60;;
68938;SDS011;59064;45.294;11.816;2023-07-20T13:37:07;5.60;;;2.70;;
68938;SDS011;59064;45.294;11.816;2023-07-20T13:39:33;6.10;;;3.10;;
68938;SDS011;59064;45.294;11.816;2023-07-20T13:41:58;5.10;;;2.50;;
68938;SDS011;59064;45.294;11.816;2023-07-20T13:44:26;5.60;;;2.70;;
68938;SDS011;59064;45.294;11.816;2023-07-20T13:46:52;5.60;;;2.60;;
68938;SDS011;59064;45.294;11.816;2023-07-20T13:49:17;4.40;;;2.40;;
68938;SDS011;59064;45.294;11.816;2023-07-20T13:51:42;6.40;;;2.50;;
68938;SDS011;59064;45.294;11.816;2023-07-20T13:54:09;5.90;;;2.40;;
68938;SDS011;59064;45.294;11.816;2023-07-20T13:56:35;4.30;;;2.20;;
68938;SDS011;59064;45.294;11.816;2023-07-20T13:59:00;5.20;;;2.50;;
68938;SDS011;59064;45.294;11.816;2023-07-20T14:01:26;6.00;;;2.40;;
68938;SDS011;59064;45.294;11.816;2023-07-20T14:03:53;6.10;;;2.60;;
68938;SDS011;59064;45.294;11.816;2023-07-20T14:06:18;4.60;;;2.40;;
68938;SDS011;59064;45.294;11.816;2023-07-20T14:08:44;4.20;;;2.50;;
68938;SDS011;59064;45.294;11.816;2023-07-20T14:11:14;5.00;;;2.40;;
68938;SDS011;59064;45.294;11.816;2023-07-20T14:13:40;5.50;;;2.80;;
68938;SDS011;59064;45.294;11.816;2023-07-20T14:16:06;4.10;;;2.30;;
68938;SDS011;59064;45.294;11.816;2023-07-20T14:18:32;4.80;;;2.40;;
68938;SDS011;59064;45.294;11.816;2023-07-20T14:20:57;4.30;;;2.50;;
68938;SDS011;59064;45.294;11.816;2023-07-20T14:23:23;4.20;;;2.50;;
68938;SDS011;59064;45.294;11.816;2023-07-20T14:25:48;5.40;;;3.00;;
68938;SDS011;59064;45.294;11.816;2023-07-20T14:28:14;6.30;;;2.80;;
68938;SDS011;59064;45.294;11.816;2023-07-20T14:30:41;4.50;;;2.30;;
68938;SDS011;59064;45.294;11.816;2023-07-20T14:35:41;5.60;;;2.30;;
68938;SDS011;59064;45.294;11.816;2023-07-20T14:38:06;5.30;;;2.60;;
68938;SDS011;59064;45.294;11.816;2023-07-20T14:40:32;6.00;;;2.40;;
68938;SDS011;59064;45.294;11.816;2023-07-20T14:42:57;6.10;;;2.60;;
68938;SDS011;59064;45.294;11.816;2023-07-20T14:45:24;4.60;;;2.30;;
68938;SDS011;59064;45.294;11.816;2023-07-20T14:47:49;6.20;;;3.00;;